createdAt,value
2018-04-24T00:00:17.313Z,0.00
2018-04-24T00:02:10.264Z,0.00
2018-04-24T00:03:10.268Z,0.00
2018-04-24T00:05:03.199Z,0.00
2018-04-24T00:06:03.219Z,0.00
2018-04-24T00:07:56.169Z,0.00
2018-04-24T00:08:56.174Z,0.00
2018-04-24T00:10:49.125Z,0.00
2018-04-24T00:11:49.128Z,0.00
2018-04-24T00:13:42.057Z,0.00
2018-04-24T00:14:42.108Z,0.00
2018-04-24T00:16:35.034Z,0.00
2018-04-24T00:17:35.039Z,0.00
2018-04-24T00:19:27.966Z,0.00
2018-04-24T00:20:27.988Z,0.00
2018-04-24T00:22:20.974Z,0.00
2018-04-24T00:23:20.940Z,0.00
2018-04-24T00:25:13.874Z,0.00
2018-04-24T00:26:13.996Z,0.00
2018-04-24T00:28:06.850Z,0.00
2018-04-24T00:29:06.849Z,0.00
2018-04-24T00:30:59.801Z,0.00
2018-04-24T00:31:59.810Z,0.00
2018-04-24T00:33:52.740Z,0.00
2018-04-24T00:34:52.758Z,0.00
2018-04-24T00:36:45.706Z,0.00
2018-04-24T00:37:45.709Z,0.00
2018-04-24T00:39:38.647Z,0.00
2018-04-24T00:40:38.665Z,0.00
2018-04-24T00:42:31.614Z,0.00
2018-04-24T00:43:31.618Z,0.00
2018-04-24T00:45:24.554Z,0.00
2018-04-24T00:46:24.572Z,0.00
2018-04-24T00:48:17.523Z,0.00
2018-04-24T00:49:17.528Z,0.00
2018-04-24T00:51:10.475Z,0.00
2018-04-24T00:52:10.479Z,0.00
2018-04-24T00:54:03.417Z,0.00
2018-04-24T00:55:03.435Z,0.00
2018-04-24T00:56:56.461Z,0.00
2018-04-24T00:57:56.395Z,0.00
2018-04-24T00:59:49.324Z,0.00
2018-04-24T01:00:49.339Z,0.00
2018-04-24T01:02:42.289Z,0.00
2018-04-24T01:03:42.296Z,0.00
2018-04-24T01:05:35.230Z,0.00
2018-04-24T01:06:35.245Z,0.00
2018-04-24T01:08:28.198Z,0.00
2018-04-24T01:09:28.203Z,0.00
2018-04-24T01:11:21.257Z,0.00
2018-04-24T01:12:21.155Z,0.00
2018-04-24T01:14:14.093Z,0.00
2018-04-24T01:15:14.110Z,0.00
2018-04-24T01:17:07.060Z,0.00
2018-04-24T01:18:07.063Z,0.00
2018-04-24T01:19:59.999Z,0.00
2018-04-24T01:21:00.017Z,0.00
2018-04-24T01:22:52.966Z,0.00
2018-04-24T01:23:52.978Z,0.00
2018-04-24T01:25:45.908Z,0.00
2018-04-24T01:26:45.925Z,0.00
2018-04-24T01:28:38.881Z,0.00
2018-04-24T01:29:38.879Z,0.00
2018-04-24T01:31:31.814Z,0.00
2018-04-24T01:32:31.831Z,0.00
2018-04-24T01:34:24.801Z,0.00
2018-04-24T01:35:24.790Z,0.00
2018-04-24T01:37:17.735Z,0.00
2018-04-24T01:38:17.737Z,0.00
2018-04-24T01:40:10.677Z,0.00
2018-04-24T01:41:10.694Z,0.00
2018-04-24T01:43:03.648Z,0.00
2018-04-24T01:44:03.645Z,0.00
2018-04-24T01:45:56.582Z,0.00
2018-04-24T01:46:56.598Z,0.00
2018-04-24T01:48:49.553Z,0.00
2018-04-24T01:49:49.554Z,0.00
2018-04-24T01:51:42.489Z,0.00
2018-04-24T01:52:42.509Z,0.00
2018-04-24T01:54:35.457Z,0.00
2018-04-24T01:55:35.459Z,0.00
2018-04-24T01:57:28.411Z,0.00
2018-04-24T01:58:28.418Z,0.00
2018-04-24T02:00:21.350Z,0.00
2018-04-24T02:01:21.367Z,0.00
2018-04-24T02:03:14.319Z,0.00
2018-04-24T02:04:14.326Z,0.00
2018-04-24T02:06:07.257Z,0.00
2018-04-24T02:07:07.274Z,0.00
2018-04-24T02:09:00.226Z,0.00
2018-04-24T02:10:00.228Z,0.00
2018-04-24T02:11:53.164Z,0.00
2018-04-24T02:12:53.183Z,0.00
2018-04-24T02:14:46.133Z,0.00
2018-04-24T02:15:46.134Z,0.00
2018-04-24T02:17:39.089Z,0.00
2018-04-24T02:18:39.090Z,0.00
2018-04-24T02:20:32.025Z,0.00
2018-04-24T02:21:32.045Z,0.00
2018-04-24T02:23:24.994Z,0.00
2018-04-24T02:24:24.996Z,0.00
2018-04-24T02:26:17.932Z,0.00
2018-04-24T02:27:17.948Z,0.00
2018-04-24T02:29:10.902Z,0.00
2018-04-24T02:30:10.909Z,0.00
2018-04-24T02:32:03.843Z,0.00
2018-04-24T02:33:03.857Z,0.00
2018-04-24T02:34:56.812Z,0.00
2018-04-24T02:35:56.817Z,0.00
2018-04-24T02:37:49.765Z,0.00
2018-04-24T02:38:49.767Z,0.00
2018-04-24T02:40:42.700Z,0.00
2018-04-24T02:41:42.719Z,0.00
2018-04-24T02:43:35.677Z,0.00
2018-04-24T02:44:35.675Z,0.00
2018-04-24T02:46:28.610Z,0.00
2018-04-24T02:47:28.627Z,0.00
2018-04-24T02:49:21.575Z,0.00
2018-04-24T02:50:21.587Z,0.00
2018-04-24T02:52:14.519Z,0.00
2018-04-24T02:53:14.535Z,0.00
2018-04-24T02:55:07.486Z,0.00
2018-04-24T02:56:07.491Z,0.00
2018-04-24T02:58:00.439Z,0.00
2018-04-24T02:59:00.442Z,0.00
2018-04-24T03:00:54.917Z,0.00
2018-04-24T03:01:54.936Z,0.00
2018-04-24T03:03:47.885Z,0.00
2018-04-24T03:04:47.884Z,0.00
2018-04-24T03:06:40.821Z,0.00
2018-04-24T03:07:40.839Z,0.00
2018-04-24T03:09:34.301Z,0.00
2018-04-24T03:10:34.306Z,0.00
2018-04-24T03:12:27.237Z,0.00
2018-04-24T03:13:27.259Z,0.00
2018-04-24T03:15:20.209Z,0.00
2018-04-24T03:16:20.223Z,0.00
2018-04-24T03:18:13.161Z,0.00
2018-04-24T03:19:13.162Z,0.00
2018-04-24T03:21:06.099Z,0.00
2018-04-24T03:22:06.122Z,0.00
2018-04-24T03:23:59.069Z,0.00
2018-04-24T03:24:59.071Z,0.00
2018-04-24T03:26:52.007Z,0.00
2018-04-24T03:27:52.026Z,0.00
2018-04-24T03:29:44.977Z,0.00
2018-04-24T03:30:44.978Z,0.00
2018-04-24T03:32:37.915Z,0.00
2018-04-24T03:33:37.934Z,0.00
2018-04-24T03:35:30.886Z,0.00
2018-04-24T03:36:30.886Z,0.00
2018-04-24T03:38:23.840Z,4.00
2018-04-24T03:39:23.840Z,4.00
2018-04-24T03:41:17.286Z,4.00
2018-04-24T03:42:17.307Z,4.00
2018-04-24T03:44:10.772Z,4.00
2018-04-24T03:45:10.771Z,4.00
2018-04-24T03:47:03.706Z,8.00
2018-04-24T03:48:03.725Z,12.00
2018-04-24T03:49:56.677Z,16.00
2018-04-24T03:50:56.681Z,16.00
2018-04-24T03:52:50.124Z,24.00
2018-04-24T03:53:50.147Z,28.00
2018-04-24T03:55:43.097Z,36.00
2018-04-24T03:56:43.097Z,36.00
2018-04-24T03:58:36.049Z,52.00
2018-04-24T03:59:36.051Z,56.00
2018-04-24T04:01:29.498Z,72.00
2018-04-24T04:02:29.522Z,80.00
2018-04-24T04:04:22.469Z,96.00
2018-04-24T04:05:22.471Z,108.00
2018-04-24T04:07:15.405Z,128.00
2018-04-24T04:08:15.425Z,140.00
2018-04-24T04:10:08.376Z,164.00
2018-04-24T04:11:08.378Z,180.00
2018-04-24T04:13:01.314Z,208.00
2018-04-24T04:14:01.331Z,232.00
2018-04-24T04:15:54.331Z,280.00
2018-04-24T04:16:54.286Z,312.00
2018-04-24T04:18:47.239Z,368.00
2018-04-24T04:19:47.239Z,404.00
2018-04-24T04:21:40.174Z,468.00
2018-04-24T04:22:40.196Z,500.00
2018-04-24T04:24:33.146Z,572.00
2018-04-24T04:25:33.146Z,616.00
2018-04-24T04:27:26.082Z,716.00
2018-04-24T04:28:26.102Z,780.00
2018-04-24T04:30:19.062Z,896.00
2018-04-24T04:31:19.056Z,956.00
2018-04-24T04:33:11.991Z,1076.00
2018-04-24T04:34:12.009Z,1136.00
2018-04-24T04:36:04.960Z,1168.00
2018-04-24T04:37:04.963Z,1180.00
2018-04-24T04:38:58.427Z,1300.00
2018-04-24T04:39:58.428Z,1360.00
2018-04-24T04:41:51.365Z,1424.00
2018-04-24T04:42:51.383Z,1440.00
2018-04-24T04:44:44.353Z,1472.00
2018-04-24T04:45:44.354Z,1492.00
2018-04-24T04:47:37.271Z,1408.00
2018-04-24T04:48:37.292Z,1404.00
2018-04-24T04:50:30.250Z,1336.00
2018-04-24T04:51:30.245Z,1300.00
2018-04-24T04:53:23.181Z,1184.00
2018-04-24T04:54:23.202Z,1168.00
2018-04-24T04:56:16.151Z,1080.00
2018-04-24T04:57:16.157Z,1040.00
2018-04-24T04:59:09.104Z,1048.00
2018-04-24T05:00:09.107Z,1060.00
2018-04-24T05:02:02.045Z,1176.00
2018-04-24T05:03:02.061Z,1276.00
2018-04-24T05:04:55.015Z,1416.00
2018-04-24T05:05:55.015Z,1460.00
2018-04-24T05:07:47.952Z,1532.00
2018-04-24T05:08:47.971Z,1592.00
2018-04-24T05:10:40.920Z,1612.00
2018-04-24T05:11:40.925Z,1636.00
2018-04-24T05:13:33.855Z,1784.00
2018-04-24T05:14:33.878Z,1848.00
2018-04-24T05:16:26.831Z,1968.00
2018-04-24T05:17:26.832Z,2032.00
2018-04-24T05:19:19.786Z,2144.00
2018-04-24T05:20:19.788Z,2128.00
2018-04-24T05:22:12.721Z,2176.00
2018-04-24T05:23:12.739Z,2148.00
2018-04-24T05:25:05.679Z,2156.00
2018-04-24T05:26:05.678Z,2256.00
2018-04-24T05:27:58.587Z,2632.00
2018-04-24T05:28:58.606Z,2836.00
2018-04-24T05:30:52.525Z,3092.00
2018-04-24T05:31:52.528Z,3208.00
2018-04-24T05:33:45.442Z,2988.00
2018-04-24T05:34:45.457Z,2868.00
2018-04-24T05:36:38.876Z,2696.00
2018-04-24T05:37:38.882Z,2544.00
2018-04-24T05:39:31.805Z,2396.00
2018-04-24T05:40:31.808Z,2376.00
2018-04-24T05:42:25.208Z,2428.00
2018-04-24T05:43:25.228Z,2472.00
2018-04-24T05:45:18.179Z,2440.00
2018-04-24T05:46:18.156Z,2268.00
2018-04-24T05:48:11.063Z,2092.00
2018-04-24T05:49:11.086Z,2048.00
2018-04-24T05:51:04.012Z,1920.00
2018-04-24T05:52:04.013Z,1768.00
2018-04-24T05:53:56.924Z,1464.00
2018-04-24T05:54:56.947Z,1448.00
2018-04-24T05:56:49.874Z,1696.00
2018-04-24T05:57:49.973Z,1852.00
2018-04-24T05:59:42.805Z,2288.00
2018-04-24T06:00:42.809Z,2344.00
2018-04-24T06:02:35.713Z,2240.00
2018-04-24T06:03:35.735Z,2252.00
2018-04-24T06:05:28.661Z,2204.00
2018-04-24T06:06:28.665Z,2372.00
2018-04-24T06:08:21.636Z,2872.00
2018-04-24T06:09:21.588Z,3088.00
2018-04-24T06:11:14.518Z,3248.00
2018-04-24T06:12:14.527Z,3276.00
2018-04-24T06:14:07.433Z,3204.00
2018-04-24T06:15:07.461Z,3204.00
2018-04-24T06:17:00.375Z,3048.00
2018-04-24T06:18:00.379Z,2944.00
2018-04-24T06:19:53.320Z,3188.00
2018-04-24T06:20:53.317Z,3380.00
2018-04-24T06:22:46.715Z,3852.00
2018-04-24T06:23:46.737Z,4068.00
2018-04-24T06:25:39.668Z,4308.00
2018-04-24T06:26:39.674Z,4368.00
2018-04-24T06:28:32.622Z,4204.00
2018-04-24T06:29:32.597Z,4284.00
2018-04-24T06:31:25.526Z,4192.00
2018-04-24T06:32:25.536Z,4056.00
2018-04-24T06:34:18.435Z,3932.00
2018-04-24T06:35:18.456Z,4036.00
2018-04-24T06:37:11.386Z,4260.00
2018-04-24T06:38:11.387Z,4396.00
2018-04-24T06:40:04.318Z,4496.00
2018-04-24T06:41:04.316Z,4640.00
2018-04-24T06:42:57.223Z,5044.00
2018-04-24T06:43:57.242Z,5080.00
2018-04-24T06:45:50.245Z,4452.00
2018-04-24T06:46:50.244Z,4328.00
2018-04-24T06:48:43.179Z,3788.00
2018-04-24T06:49:43.205Z,3664.00
2018-04-24T06:51:36.659Z,3804.00
2018-04-24T06:52:36.663Z,4024.00
2018-04-24T06:54:30.107Z,4104.00
2018-04-24T06:55:30.128Z,4432.00
2018-04-24T06:57:23.081Z,4448.00
2018-04-24T06:58:23.085Z,4276.00
2018-04-24T07:00:16.034Z,4436.00
2018-04-24T07:01:16.036Z,4908.00
2018-04-24T07:03:08.976Z,4852.00
2018-04-24T07:04:08.994Z,4916.00
2018-04-24T07:06:01.945Z,4704.00
2018-04-24T07:07:01.949Z,5200.00
2018-04-24T07:08:54.884Z,5328.00
2018-04-24T07:09:54.899Z,4728.00
2018-04-24T07:11:47.851Z,4380.00
2018-04-24T07:12:47.856Z,4504.00
2018-04-24T07:14:40.785Z,4240.00
2018-04-24T07:15:40.806Z,4152.00
2018-04-24T07:17:33.758Z,4136.00
2018-04-24T07:18:33.762Z,4056.00
2018-04-24T07:20:27.108Z,3660.00
2018-04-24T07:21:27.111Z,3448.00
2018-04-24T07:23:20.057Z,3452.00
2018-04-24T07:24:20.078Z,3492.00
2018-04-24T07:26:13.029Z,3732.00
2018-04-24T07:27:13.048Z,3952.00
2018-04-24T07:29:05.970Z,3768.00
2018-04-24T07:30:05.988Z,3944.00
2018-04-24T07:31:58.939Z,4304.00
2018-04-24T07:32:58.984Z,4280.00
2018-04-24T07:34:51.872Z,4216.00
2018-04-24T07:35:51.892Z,5188.00
2018-04-24T07:37:45.353Z,5912.00
2018-04-24T07:38:45.357Z,6024.00
2018-04-24T07:40:38.825Z,5412.00
2018-04-24T07:41:38.830Z,5184.00
2018-04-24T07:43:31.759Z,6244.00
2018-04-24T07:44:31.778Z,5696.00
2018-04-24T07:46:24.729Z,5252.00
2018-04-24T07:47:24.732Z,5164.00
2018-04-24T07:49:17.672Z,4452.00
2018-04-24T07:50:17.684Z,3980.00
2018-04-24T07:52:10.640Z,4232.00
2018-04-24T07:53:10.641Z,4920.00
2018-04-24T07:55:03.582Z,5060.00
2018-04-24T07:56:03.597Z,5360.00
2018-04-24T07:57:56.543Z,5856.00
2018-04-24T07:58:56.546Z,5936.00
2018-04-24T08:00:49.500Z,5364.00
2018-04-24T08:01:49.516Z,5400.00
2018-04-24T08:03:42.436Z,5216.00
2018-04-24T08:04:42.455Z,5420.00
2018-04-24T08:06:35.411Z,6224.00
2018-04-24T08:07:35.419Z,5608.00
2018-04-24T08:09:28.344Z,5744.00
2018-04-24T08:10:28.363Z,5700.00
2018-04-24T08:12:21.313Z,5656.00
2018-04-24T08:13:21.317Z,5720.00
2018-04-24T08:15:14.251Z,5316.00
2018-04-24T08:16:14.270Z,5648.00
2018-04-24T08:18:07.222Z,6756.00
2018-04-24T08:19:07.227Z,7096.00
2018-04-24T08:21:00.175Z,6392.00
2018-04-24T08:22:00.180Z,5932.00
2018-04-24T08:23:53.112Z,4964.00
2018-04-24T08:24:53.133Z,4708.00
2018-04-24T08:26:46.084Z,4348.00
2018-04-24T08:27:46.091Z,4460.00
2018-04-24T08:29:39.018Z,4984.00
2018-04-24T08:30:39.043Z,5088.00
2018-04-24T08:32:32.503Z,5284.00
2018-04-24T08:33:32.518Z,5580.00
2018-04-24T08:35:25.441Z,5720.00
2018-04-24T08:36:25.463Z,5976.00
2018-04-24T08:38:18.411Z,6196.00
2018-04-24T08:39:18.415Z,5872.00
2018-04-24T08:41:11.368Z,6520.00
2018-04-24T08:42:11.371Z,6492.00
2018-04-24T08:44:04.304Z,6032.00
2018-04-24T08:45:04.327Z,6364.00
2018-04-24T08:46:57.274Z,6548.00
2018-04-24T08:47:57.352Z,6224.00
2018-04-24T08:49:50.210Z,6900.00
2018-04-24T08:50:50.233Z,6900.00
2018-04-24T08:52:43.183Z,6856.00
2018-04-24T08:53:43.192Z,7152.00
2018-04-24T08:55:36.123Z,7792.00
2018-04-24T08:56:36.137Z,7800.00
2018-04-24T08:58:29.093Z,7400.00
2018-04-24T08:59:29.095Z,7572.00
2018-04-24T09:01:22.047Z,7524.00
2018-04-24T09:02:22.049Z,7288.00
2018-04-24T09:04:15.492Z,8008.00
2018-04-24T09:05:15.514Z,8832.00
2018-04-24T09:07:08.975Z,8776.00
2018-04-24T09:08:08.979Z,8664.00
2018-04-24T09:10:01.912Z,8272.00
2018-04-24T09:11:01.932Z,7644.00
2018-04-24T09:12:54.889Z,7832.00
2018-04-24T09:13:54.886Z,7700.00
2018-04-24T09:15:47.819Z,8060.00
2018-04-24T09:16:47.842Z,8392.00
2018-04-24T09:18:40.789Z,8988.00
2018-04-24T09:19:40.793Z,8920.00
2018-04-24T09:21:33.748Z,9540.00
2018-04-24T09:22:33.750Z,9144.00
2018-04-24T09:24:26.676Z,10060.00
2018-04-24T09:25:26.701Z,10700.00
2018-04-24T09:27:19.649Z,12152.00
2018-04-24T09:28:19.654Z,12996.00
2018-04-24T09:30:13.097Z,14516.00
2018-04-24T09:31:13.120Z,13888.00
2018-04-24T09:33:06.178Z,13652.00
2018-04-24T09:34:06.176Z,13616.00
2018-04-24T09:35:59.109Z,11928.00
2018-04-24T09:36:59.130Z,11160.00
2018-04-24T09:38:52.078Z,10656.00
2018-04-24T09:39:52.083Z,11932.00
2018-04-24T09:41:45.551Z,12796.00
2018-04-24T09:42:45.554Z,14040.00
2018-04-24T09:44:38.481Z,13484.00
2018-04-24T09:45:38.504Z,11664.00
2018-04-24T09:47:31.459Z,8968.00
2018-04-24T09:48:31.463Z,9780.00
2018-04-24T09:50:24.387Z,10624.00
2018-04-24T09:51:24.482Z,9640.00
2018-04-24T09:53:17.361Z,8856.00
2018-04-24T09:54:17.367Z,9052.00
2018-04-24T09:56:10.807Z,9756.00
2018-04-24T09:57:10.833Z,9136.00
2018-04-24T09:59:03.870Z,11044.00
2018-04-24T10:00:03.785Z,12768.00
2018-04-24T10:01:56.733Z,10936.00
2018-04-24T10:02:56.731Z,8364.00
2018-04-24T10:04:49.648Z,9844.00
2018-04-24T10:05:49.673Z,11108.00
2018-04-24T10:07:42.612Z,10024.00
2018-04-24T10:08:42.609Z,9268.00
2018-04-24T10:10:35.525Z,7872.00
2018-04-24T10:11:35.551Z,7224.00
2018-04-24T10:13:29.000Z,6960.00
2018-04-24T10:14:28.984Z,7264.00
2018-04-24T10:16:21.905Z,6624.00
2018-04-24T10:17:21.924Z,6060.00
2018-04-24T10:19:14.863Z,5464.00
2018-04-24T10:20:14.870Z,5320.00
2018-04-24T10:22:07.799Z,5744.00
2018-04-24T10:23:07.809Z,5772.00
2018-04-24T10:25:00.719Z,6044.00
2018-04-24T10:26:00.747Z,6072.00
2018-04-24T10:27:53.676Z,6108.00
2018-04-24T10:28:53.685Z,6180.00
2018-04-24T10:30:46.594Z,6792.00
2018-04-24T10:31:46.622Z,7052.00
2018-04-24T10:33:39.548Z,6968.00
2018-04-24T10:34:39.553Z,6684.00
2018-04-24T10:36:32.466Z,7220.00
2018-04-24T10:37:32.513Z,7800.00
2018-04-24T10:39:25.428Z,7320.00
2018-04-24T10:40:25.430Z,8208.00
2018-04-24T10:42:18.354Z,9740.00
2018-04-24T10:43:18.358Z,10308.00
2018-04-24T10:45:11.273Z,9204.00
2018-04-24T10:46:11.295Z,8180.00
2018-04-24T10:48:04.290Z,8052.00
2018-04-24T10:49:04.312Z,7212.00
2018-04-24T10:50:57.152Z,8276.00
2018-04-24T10:51:57.182Z,9052.00
2018-04-24T10:53:50.114Z,10792.00
2018-04-24T10:54:50.120Z,12380.00
2018-04-24T10:56:43.030Z,14456.00
2018-04-24T10:57:43.051Z,13604.00
2018-04-24T10:59:35.982Z,12532.00
2018-04-24T11:00:36.068Z,12536.00
2018-04-24T11:02:28.920Z,12844.00
2018-04-24T11:03:28.930Z,13400.00
2018-04-24T11:05:21.840Z,13420.00
2018-04-24T11:06:21.871Z,13004.00
2018-04-24T11:08:14.800Z,14096.00
2018-04-24T11:09:14.799Z,14876.00
2018-04-24T11:11:08.712Z,12660.00
2018-04-24T11:12:08.737Z,11752.00
2018-04-24T11:14:01.673Z,9536.00
2018-04-24T11:16:15.077Z,10376.00
2018-04-24T11:17:15.099Z,9920.00
2018-04-24T11:19:08.033Z,11040.00
2018-04-24T11:20:08.045Z,11852.00
2018-04-24T11:22:00.954Z,13104.00
2018-04-24T11:23:00.984Z,13484.00
2018-04-24T11:24:53.915Z,13704.00
2018-04-24T11:25:53.923Z,12904.00
2018-04-24T11:27:46.861Z,13008.00
2018-04-24T11:28:46.865Z,13300.00
2018-04-24T11:30:39.783Z,15016.00
2018-04-24T11:31:39.811Z,15144.00
2018-04-24T11:33:32.753Z,15888.00
2018-04-24T11:34:32.842Z,15968.00
2018-04-24T11:36:25.676Z,16052.00
2018-04-24T11:37:25.707Z,15352.00
2018-04-24T11:39:18.649Z,10212.00
2018-04-24T11:40:18.653Z,11372.00
2018-04-24T11:42:11.569Z,15248.00
2018-04-24T11:43:11.596Z,14440.00
2018-04-24T11:45:04.551Z,13900.00
2018-04-24T11:46:04.538Z,14164.00
2018-04-24T11:47:57.470Z,13952.00
2018-04-24T11:48:57.476Z,15348.00
2018-04-24T11:50:50.399Z,16556.00
2018-04-24T11:51:50.425Z,17184.00
2018-04-24T11:53:43.359Z,16068.00
2018-04-24T11:54:43.370Z,15968.00
2018-04-24T11:56:36.285Z,19488.00
2018-04-24T11:57:36.314Z,17664.00
2018-04-24T11:59:29.248Z,15864.00
2018-04-24T12:00:29.256Z,14068.00
2018-04-24T12:02:22.184Z,13004.00
2018-04-24T12:03:22.208Z,12408.00
2018-04-24T12:05:15.148Z,13172.00
2018-04-24T12:06:15.153Z,10944.00
2018-04-24T12:08:08.102Z,9420.00
2018-04-24T12:09:08.102Z,10264.00
2018-04-24T12:11:01.022Z,10848.00
2018-04-24T12:12:01.046Z,9472.00
2018-04-24T12:13:53.991Z,8588.00
2018-04-24T12:14:53.991Z,7332.00
2018-04-24T12:16:46.905Z,6348.00
2018-04-24T12:17:46.938Z,6084.00
2018-04-24T12:19:39.865Z,7352.00
2018-04-24T12:20:39.875Z,7520.00
2018-04-24T12:22:32.790Z,7500.00
2018-04-24T12:23:32.856Z,6640.00
2018-04-24T12:25:25.760Z,5820.00
2018-04-24T12:26:25.759Z,5492.00
2018-04-24T12:28:18.707Z,5180.00
2018-04-24T12:29:18.713Z,7196.00
2018-04-24T12:31:11.630Z,8468.00
2018-04-24T12:32:11.655Z,5908.00
2018-04-24T12:34:04.680Z,6660.00
2018-04-24T12:35:04.686Z,6820.00
2018-04-24T12:36:57.618Z,6804.00
2018-04-24T12:37:57.641Z,6436.00
2018-04-24T12:39:50.589Z,5436.00
2018-04-24T12:40:50.598Z,6520.00
2018-04-24T12:42:43.527Z,5888.00
2018-04-24T12:43:43.550Z,6836.00
2018-04-24T12:45:36.484Z,6696.00
2018-04-24T12:46:36.494Z,6136.00
2018-04-24T12:48:29.923Z,10400.00
2018-04-24T12:49:29.966Z,10688.00
2018-04-24T12:51:22.859Z,9532.00
2018-04-24T12:52:22.872Z,10252.00
2018-04-24T12:54:15.798Z,11184.00
2018-04-24T12:55:15.808Z,11460.00
2018-04-24T12:57:08.722Z,11224.00
2018-04-24T12:58:08.748Z,11196.00
2018-04-24T13:00:01.683Z,9364.00
2018-04-24T13:01:01.688Z,8764.00
2018-04-24T13:02:54.605Z,9768.00
2018-04-24T13:03:54.722Z,9364.00
2018-04-24T13:05:47.574Z,8404.00
2018-04-24T13:06:47.582Z,7604.00
2018-04-24T13:08:40.601Z,9112.00
2018-04-24T13:09:40.530Z,9544.00
2018-04-24T13:11:33.439Z,7296.00
2018-04-24T13:12:33.472Z,7764.00
2018-04-24T13:14:26.400Z,9320.00
2018-04-24T13:15:26.411Z,9748.00
2018-04-24T13:17:19.326Z,8888.00
2018-04-24T13:18:19.413Z,9356.00
2018-04-24T13:20:12.340Z,9024.00
2018-04-24T13:21:12.356Z,8812.00
2018-04-24T13:23:05.211Z,7584.00
2018-04-24T13:24:05.236Z,7832.00
2018-04-24T13:25:58.171Z,8256.00
2018-04-24T13:26:58.178Z,8452.00
2018-04-24T13:28:51.118Z,6636.00
2018-04-24T13:29:51.122Z,6756.00
2018-04-24T13:31:44.042Z,9268.00
2018-04-24T13:32:44.071Z,10140.00
2018-04-24T13:34:36.995Z,9508.00
2018-04-24T13:35:37.006Z,9688.00
2018-04-24T13:37:29.915Z,8584.00
2018-04-24T13:38:29.944Z,7868.00
2018-04-24T13:40:22.873Z,7636.00
2018-04-24T13:41:22.885Z,7248.00
2018-04-24T13:43:15.854Z,6852.00
2018-04-24T13:44:15.820Z,7348.00
2018-04-24T13:46:08.750Z,6876.00
2018-04-24T13:47:08.759Z,7664.00
2018-04-24T13:49:01.813Z,8004.00
2018-04-24T13:50:01.699Z,7688.00
2018-04-24T13:51:54.618Z,7388.00
2018-04-24T13:52:54.643Z,7912.00
2018-04-24T13:54:48.161Z,7028.00
2018-04-24T13:55:48.100Z,6628.00
2018-04-24T13:57:41.052Z,6732.00
2018-04-24T13:58:41.035Z,7104.00
2018-04-24T14:00:34.065Z,7356.00
2018-04-24T14:01:34.010Z,7264.00
2018-04-24T14:03:26.888Z,6676.00
2018-04-24T14:04:26.908Z,6088.00
2018-04-24T14:06:20.476Z,5980.00
2018-04-24T14:07:19.903Z,6280.00
2018-04-24T14:09:12.835Z,6616.00
2018-04-24T14:10:12.806Z,5888.00
2018-04-24T14:12:05.733Z,6124.00
2018-04-24T14:13:05.766Z,6164.00
2018-04-24T14:14:58.752Z,6428.00
2018-04-24T14:15:58.701Z,6800.00
2018-04-24T14:17:51.648Z,6764.00
2018-04-24T14:18:51.628Z,6668.00
2018-04-24T14:20:44.641Z,8204.00
2018-04-24T14:21:44.650Z,9068.00
2018-04-24T14:23:37.518Z,9224.00
2018-04-24T14:24:37.536Z,8816.00
2018-04-24T14:26:30.538Z,8248.00
2018-04-24T14:27:30.487Z,7688.00
2018-04-24T14:29:23.449Z,7828.00
2018-04-24T14:30:23.395Z,8040.00
2018-04-24T14:32:16.403Z,9180.00
2018-04-24T14:33:16.344Z,9972.00
2018-04-24T14:35:09.329Z,9832.00
2018-04-24T14:36:09.299Z,9584.00
2018-04-24T14:38:02.242Z,8480.00
2018-04-24T14:39:02.268Z,8152.00
2018-04-24T14:40:55.230Z,7364.00
2018-04-24T14:41:55.215Z,6736.00
2018-04-24T14:43:48.617Z,6140.00
2018-04-24T14:44:48.652Z,6048.00
2018-04-24T14:46:41.616Z,6224.00
2018-04-24T14:47:41.587Z,6520.00
2018-04-24T14:49:34.496Z,7592.00
2018-04-24T14:50:34.503Z,7804.00
2018-04-24T14:52:27.563Z,8912.00
2018-04-24T14:53:27.467Z,9508.00
2018-04-24T14:55:20.422Z,7612.00
2018-04-24T14:56:20.912Z,8588.00
2018-04-24T14:58:14.364Z,9012.00
2018-04-24T14:59:14.334Z,9196.00
2018-04-24T15:01:07.278Z,7916.00
2018-04-24T15:02:07.793Z,8128.00
2018-04-24T15:04:00.198Z,6740.00
2018-04-24T15:05:00.235Z,6784.00
2018-04-24T15:06:53.212Z,5284.00
2018-04-24T15:07:53.179Z,4416.00
2018-04-24T15:09:47.135Z,4544.00
2018-04-24T15:10:46.180Z,4340.00
2018-04-24T15:12:39.123Z,5548.00
2018-04-24T15:13:39.112Z,6140.00
2018-04-24T15:15:33.093Z,7416.00
2018-04-24T15:16:32.105Z,7420.00
2018-04-24T15:18:25.546Z,7820.00
2018-04-24T15:19:25.531Z,7720.00
2018-04-24T15:21:18.974Z,7504.00
2018-04-24T15:22:18.982Z,6984.00
2018-04-24T15:24:11.925Z,6512.00
2018-04-24T15:25:11.938Z,6240.00
2018-04-24T15:27:04.881Z,5600.00
2018-04-24T15:28:04.914Z,5164.00
2018-04-24T15:29:57.819Z,5752.00
2018-04-24T15:30:57.845Z,6272.00
2018-04-24T15:32:50.836Z,6112.00
2018-04-24T15:33:50.833Z,5456.00
2018-04-24T15:35:43.743Z,5072.00
2018-04-24T15:36:43.751Z,5176.00
2018-04-24T15:38:38.221Z,5676.00
2018-04-24T15:39:38.240Z,5628.00
2018-04-24T15:41:31.283Z,4644.00
2018-04-24T15:42:31.235Z,4136.00
2018-04-24T15:44:24.634Z,5392.00
2018-04-24T15:45:24.737Z,6416.00
2018-04-24T15:47:17.606Z,5948.00
2018-04-24T15:48:17.610Z,5600.00
2018-04-24T15:50:10.555Z,5916.00
2018-04-24T15:51:10.563Z,5916.00
2018-04-24T15:53:03.510Z,4612.00
2018-04-24T15:54:03.587Z,4596.00
2018-04-24T15:55:56.463Z,5136.00
2018-04-24T15:56:56.470Z,5260.00
2018-04-24T15:58:49.400Z,5320.00
2018-04-24T15:59:49.427Z,5176.00
2018-04-24T16:01:42.374Z,4180.00
2018-04-24T16:02:42.380Z,4068.00
2018-04-24T16:04:35.306Z,4912.00
2018-04-24T16:05:35.333Z,5504.00
2018-04-24T16:07:28.281Z,5648.00
2018-04-24T16:08:28.286Z,5588.00
2018-04-24T16:10:21.235Z,5496.00
2018-04-24T16:11:21.241Z,5636.00
2018-04-24T16:13:14.190Z,6012.00
2018-04-24T16:14:14.196Z,5960.00
2018-04-24T16:16:07.142Z,5428.00
2018-04-24T16:17:07.160Z,5176.00
2018-04-24T16:19:00.075Z,4968.00
2018-04-24T16:20:00.104Z,5228.00
2018-04-24T16:21:53.048Z,6224.00
2018-04-24T16:22:53.055Z,6312.00
2018-04-24T16:24:45.982Z,5832.00
2018-04-24T16:25:46.009Z,5668.00
2018-04-24T16:27:38.956Z,6212.00
2018-04-24T16:28:38.961Z,6000.00
2018-04-24T16:30:31.891Z,5088.00
2018-04-24T16:31:31.916Z,5008.00
2018-04-24T16:33:24.872Z,5072.00
2018-04-24T16:34:24.871Z,5312.00
2018-04-24T16:36:17.817Z,5396.00
2018-04-24T16:37:17.831Z,5348.00
2018-04-24T16:39:10.750Z,5176.00
2018-04-24T16:40:10.778Z,5056.00
2018-04-24T16:42:03.744Z,4656.00
2018-04-24T16:43:03.751Z,4580.00
2018-04-24T16:44:56.761Z,4388.00
2018-04-24T16:45:56.794Z,4400.00
2018-04-24T16:47:49.734Z,4512.00
2018-04-24T16:48:49.741Z,4588.00
2018-04-24T16:50:42.668Z,4728.00
2018-04-24T16:51:42.694Z,4760.00
2018-04-24T16:53:35.641Z,4836.00
2018-04-24T16:54:35.648Z,4860.00
2018-04-24T16:56:28.595Z,4776.00
2018-04-24T16:57:28.602Z,4668.00
2018-04-24T16:59:21.532Z,4504.00
2018-04-24T17:00:21.564Z,4340.00
2018-04-24T17:02:14.503Z,3932.00
2018-04-24T17:03:14.510Z,3712.00
2018-04-24T17:05:07.438Z,3292.00
2018-04-24T17:06:07.527Z,3112.00
2018-04-24T17:08:00.414Z,2940.00
2018-04-24T17:09:00.419Z,2932.00
2018-04-24T17:10:53.354Z,2932.00
2018-04-24T17:11:53.376Z,2876.00
2018-04-24T17:13:46.321Z,2740.00
2018-04-24T17:14:46.324Z,2680.00
2018-04-24T17:16:39.274Z,2548.00
2018-04-24T17:17:39.279Z,2476.00
2018-04-24T17:19:32.207Z,2412.00
2018-04-24T17:20:32.233Z,2480.00
2018-04-24T17:22:25.179Z,2700.00
2018-04-24T17:23:25.187Z,2832.00
2018-04-24T17:25:18.115Z,2872.00
2018-04-24T17:26:18.141Z,2828.00
2018-04-24T17:28:11.089Z,2604.00
2018-04-24T17:29:11.095Z,2532.00
2018-04-24T17:31:04.023Z,2332.00
2018-04-24T17:32:04.049Z,2224.00
2018-04-24T17:33:56.995Z,1964.00
2018-04-24T17:34:57.001Z,1828.00
2018-04-24T17:36:49.949Z,1616.00
2018-04-24T17:37:49.956Z,1528.00
2018-04-24T17:39:42.888Z,1512.00
2018-04-24T17:40:42.912Z,1540.00
2018-04-24T17:42:35.854Z,1572.00
2018-04-24T17:43:35.862Z,1568.00
2018-04-24T17:45:28.790Z,1512.00